sensor_id;sensor_type;location;lat;lon;timestamp;temperature;humidity
20726;DHT22;10524;48.132;8.518;2024-01-10T00:02:00;-6.00;99.90
20726;DHT22;10524;48.132;8.518;2024-01-10T00:04:25;-6.10;99.90
20726;DHT22;10524;48.132;8.518;2024-01-10T00:06:51;-6.00;99.90
20726;DHT22;10524;48.132;8.518;2024-01-10T00:09:17;-6.00;99.90
20726;DHT22;10524;48.132;8.518;2024-01-10T00:11:44;-6.00;99.90
20726;DHT22;10524;48.132;8.518;2024-01-10T00:14:09;-6.00;99.90
20726;DHT22;10524;48.132;8.518;2024-01-10T00:16:36;-6.00;99.90
20726;DHT22;10524;48.132;8.518;2024-01-10T00:19:02;-6.00;99.90
20726;DHT22;10524;48.132;8.518;2024-01-10T00:21:28;-6.00;99.90
20726;DHT22;10524;48.132;8.518;2024-01-10T00:23:54;-6.00;99.90
20726;DHT22;10524;48.132;8.518;2024-01-10T00:26:20;-6.00;99.90
20726;DHT22;10524;48.132;8.518;2024-01-10T00:28:46;-6.00;99.90
20726;DHT22;10524;48.132;8.518;2024-01-10T00:31:12;-6.00;99.90
20726;DHT22;10524;48.132;8.518;2024-01-10T00:33:39;-6.10;99.90
20726;DHT22;10524;48.132;8.518;2024-01-10T00:36:05;-6.10;99.90
20726;DHT22;10524;48.132;8.518;2024-01-10T00:38:31;-6.10;99.90
20726;DHT22;10524;48.132;8.518;2024-01-10T00:40:57;-6.10;99.90
20726;DHT22;10524;48.132;8.518;2024-01-10T00:43:23;-6.10;99.90
20726;DHT22;10524;48.132;8.518;2024-01-10T00:45:49;-6.10;99.90
20726;DHT22;10524;48.132;8.518;2024-01-10T00:48:15;-6.10;99.90
20726;DHT22;10524;48.132;8.518;2024-01-10T00:50:43;-6.10;99.90
20726;DHT22;10524;48.132;8.518;2024-01-10T00:53:10;-6.20;99.90
20726;DHT22;10524;48.132;8.518;2024-01-10T00:55:35;-6.20;99.90
20726;DHT22;10524;48.132;8.518;2024-01-10T00:58:01;-6.20;99.90
20726;DHT22;10524;48.132;8.518;2024-01-10T01:00:27;-6.20;99.90
20726;DHT22;10524;48.132;8.518;2024-01-10T01:02:53;-6.10;99.90
20726;DHT22;10524;48.132;8.518;2024-01-10T01:05:19;-6.10;99.90
20726;DHT22;10524;48.132;8.518;2024-01-10T01:07:44;-6.10;99.90
20726;DHT22;10524;48.132;8.518;2024-01-10T01:10:10;-6.10;99.90
20726;DHT22;10524;48.132;8.518;2024-01-10T01:12:36;-6.10;99.90
20726;DHT22;10524;48.132;8.518;2024-01-10T01:15:02;-6.10;99.90
20726;DHT22;10524;48.132;8.518;2024-01-10T01:17:28;-6.20;99.90
20726;DHT22;10524;48.132;8.518;2024-01-10T01:19:54;-6.10;99.90
20726;DHT22;10524;48.132;8.518;2024-01-10T01:22:19;-6.20;99.90
20726;DHT22;10524;48.132;8.518;2024-01-10T01:24:45;-6.10;99.90
20726;DHT22;10524;48.132;8.518;2024-01-10T01:27:11;-6.10;99.90
20726;DHT22;10524;48.132;8.518;2024-01-10T01:29:37;-6.10;99.90
20726;DHT22;10524;48.132;8.518;2024-01-10T01:32:02;-6.20;99.90
20726;DHT22;10524;48.132;8.518;2024-01-10T01:34:28;-6.20;99.90
20726;DHT22;10524;48.132;8.518;2024-01-10T01:36:54;-6.10;99.90
20726;DHT22;10524;48.132;8.518;2024-01-10T01:39:20;-6.10;99.90
20726;DHT22;10524;48.132;8.518;2024-01-10T01:41:45;-6.20;99.90
20726;DHT22;10524;48.132;8.518;2024-01-10T01:44:11;-6.20;99.90
20726;DHT22;10524;48.132;8.518;2024-01-10T01:46:37;-6.20;99.90
20726;DHT22;10524;48.132;8.518;2024-01-10T01:49:05;-6.10;99.90
20726;DHT22;10524;48.132;8.518;2024-01-10T01:51:34;-6.10;99.90
20726;DHT22;10524;48.132;8.518;2024-01-10T01:54:06;-6.20;99.90
20726;DHT22;10524;48.132;8.518;2024-01-10T01:56:35;-6.20;99.90
20726;DHT22;10524;48.132;8.518;2024-01-10T01:59:02;-6.10;99.90
20726;DHT22;10524;48.132;8.518;2024-01-10T02:01:28;-6.10;99.90
20726;DHT22;10524;48.132;8.518;2024-01-10T02:03:55;-6.10;99.90
20726;DHT22;10524;48.132;8.518;2024-01-10T02:06:21;-6.10;99.90
20726;DHT22;10524;48.132;8.518;2024-01-10T02:08:47;-6.10;99.90
20726;DHT22;10524;48.132;8.518;2024-01-10T02:11:13;-6.00;99.90
20726;DHT22;10524;48.132;8.518;2024-01-10T02:13:38;-6.00;99.90
20726;DHT22;10524;48.132;8.518;2024-01-10T02:16:04;-6.00;99.90
20726;DHT22;10524;48.132;8.518;2024-01-10T02:18:30;-6.10;99.90
20726;DHT22;10524;48.132;8.518;2024-01-10T02:20:56;-6.10;99.90
20726;DHT22;10524;48.132;8.518;2024-01-10T02:23:23;-6.10;99.90
20726;DHT22;10524;48.132;8.518;2024-01-10T02:25:49;-6.10;99.90
20726;DHT22;10524;48.132;8.518;2024-01-10T02:28:15;-6.10;99.90
20726;DHT22;10524;48.132;8.518;2024-01-10T02:30:41;-6.10;99.90
20726;DHT22;10524;48.132;8.518;2024-01-10T02:33:07;-6.20;99.90
20726;DHT22;10524;48.132;8.518;2024-01-10T02:35:33;-6.20;99.90
20726;DHT22;10524;48.132;8.518;2024-01-10T02:37:59;-6.30;99.90
20726;DHT22;10524;48.132;8.518;2024-01-10T02:40:25;-6.20;99.90
20726;DHT22;10524;48.132;8.518;2024-01-10T02:42:51;-6.20;99.90
20726;DHT22;10524;48.132;8.518;2024-01-10T02:45:17;-6.20;99.90
20726;DHT22;10524;48.132;8.518;2024-01-10T02:47:44;-6.20;99.90
20726;DHT22;10524;48.132;8.518;2024-01-10T02:50:10;-6.20;99.90
20726;DHT22;10524;48.132;8.518;2024-01-10T02:52:35;-6.20;99.90
20726;DHT22;10524;48.132;8.518;2024-01-10T02:55:01;-6.20;99.90
20726;DHT22;10524;48.132;8.518;2024-01-10T02:57:27;-6.20;99.90
20726;DHT22;10524;48.132;8.518;2024-01-10T02:59:53;-6.20;99.90
20726;DHT22;10524;48.132;8.518;2024-01-10T03:02:18;-6.20;99.90
20726;DHT22;10524;48.132;8.518;2024-01-10T03:04:44;-6.20;99.90
20726;DHT22;10524;48.132;8.518;2024-01-10T03:07:10;-6.20;99.90
20726;DHT22;10524;48.132;8.518;2024-01-10T03:09:36;-6.30;99.90
20726;DHT22;10524;48.132;8.518;2024-01-10T03:12:02;-6.20;99.90
20726;DHT22;10524;48.132;8.518;2024-01-10T03:14:28;-6.20;99.90
20726;DHT22;10524;48.132;8.518;2024-01-10T03:16:53;-6.20;99.90
20726;DHT22;10524;48.132;8.518;2024-01-10T03:19:19;-6.20;99.90
20726;DHT22;10524;48.132;8.518;2024-01-10T03:21:45;-6.20;99.90
20726;DHT22;10524;48.132;8.518;2024-01-10T03:24:11;-6.30;99.90
20726;DHT22;10524;48.132;8.518;2024-01-10T03:26:37;-6.30;99.90
20726;DHT22;10524;48.132;8.518;2024-01-10T03:29:03;-6.30;99.90
20726;DHT22;10524;48.132;8.518;2024-01-10T03:31:29;-6.20;99.90
20726;DHT22;10524;48.132;8.518;2024-01-10T03:33:58;-6.20;99.90
20726;DHT22;10524;48.132;8.518;2024-01-10T03:36:24;-6.20;99.90
20726;DHT22;10524;48.132;8.518;2024-01-10T03:38:50;-6.10;99.90
20726;DHT22;10524;48.132;8.518;2024-01-10T03:41:17;-6.10;99.90
20726;DHT22;10524;48.132;8.518;2024-01-10T03:43:43;-6.10;99.90
20726;DHT22;10524;48.132;8.518;2024-01-10T03:46:12;-6.00;99.90
20726;DHT22;10524;48.132;8.518;2024-01-10T03:48:38;-6.00;99.90
20726;DHT22;10524;48.132;8.518;2024-01-10T03:51:16;-6.00;99.90
20726;DHT22;10524;48.132;8.518;2024-01-10T03:53:43;-6.10;99.90
20726;DHT22;10524;48.132;8.518;2024-01-10T03:56:09;-6.10;99.90
20726;DHT22;10524;48.132;8.518;2024-01-10T03:58:35;-6.10;99.90
20726;DHT22;10524;48.132;8.518;2024-01-10T04:01:05;-6.00;99.90
20726;DHT22;10524;48.132;8.518;2024-01-10T04:03:32;-6.00;99.90
20726;DHT22;10524;48.132;8.518;2024-01-10T04:05:58;-6.00;99.90
20726;DHT22;10524;48.132;8.518;2024-01-10T04:08:24;-6.00;99.90
20726;DHT22;10524;48.132;8.518;2024-01-10T04:10:50;-5.90;99.90
20726;DHT22;10524;48.132;8.518;2024-01-10T04:13:15;-5.90;99.90
20726;DHT22;10524;48.132;8.518;2024-01-10T04:15:41;-5.90;99.90
20726;DHT22;10524;48.132;8.518;2024-01-10T04:18:07;-5.90;99.90
20726;DHT22;10524;48.132;8.518;2024-01-10T04:20:33;-5.90;99.90
20726;DHT22;10524;48.132;8.518;2024-01-10T04:22:59;-5.90;99.90
20726;DHT22;10524;48.132;8.518;2024-01-10T04:25:24;-5.90;99.90
20726;DHT22;10524;48.132;8.518;2024-01-10T04:27:50;-5.90;99.90
20726;DHT22;10524;48.132;8.518;2024-01-10T04:30:16;-5.90;99.90
20726;DHT22;10524;48.132;8.518;2024-01-10T04:32:42;-5.90;99.90
20726;DHT22;10524;48.132;8.518;2024-01-10T04:35:08;-5.90;99.90
20726;DHT22;10524;48.132;8.518;2024-01-10T04:37:33;-5.80;99.90
20726;DHT22;10524;48.132;8.518;2024-01-10T04:39:59;-5.80;99.90
20726;DHT22;10524;48.132;8.518;2024-01-10T04:42:25;-5.80;99.90
20726;DHT22;10524;48.132;8.518;2024-01-10T04:44:50;-5.90;99.90
20726;DHT22;10524;48.132;8.518;2024-01-10T04:47:16;-5.80;99.90
20726;DHT22;10524;48.132;8.518;2024-01-10T04:49:42;-5.80;99.90
20726;DHT22;10524;48.132;8.518;2024-01-10T04:52:08;-5.80;99.90
20726;DHT22;10524;48.132;8.518;2024-01-10T04:54:34;-5.90;99.90
20726;DHT22;10524;48.132;8.518;2024-01-10T04:57:00;-5.80;99.90
20726;DHT22;10524;48.132;8.518;2024-01-10T04:59:25;-5.80;99.90
20726;DHT22;10524;48.132;8.518;2024-01-10T05:01:51;-5.80;99.90
20726;DHT22;10524;48.132;8.518;2024-01-10T05:04:17;-5.70;99.90
20726;DHT22;10524;48.132;8.518;2024-01-10T05:06:43;-5.70;99.90
20726;DHT22;10524;48.132;8.518;2024-01-10T05:09:08;-5.70;99.90
20726;DHT22;10524;48.132;8.518;2024-01-10T05:11:35;-5.70;99.90
20726;DHT22;10524;48.132;8.518;2024-01-10T05:14:02;-5.70;99.90
20726;DHT22;10524;48.132;8.518;2024-01-10T05:16:28;-5.70;99.90
20726;DHT22;10524;48.132;8.518;2024-01-10T05:18:54;-5.70;99.90
20726;DHT22;10524;48.132;8.518;2024-01-10T05:21:20;-5.60;99.90
20726;DHT22;10524;48.132;8.518;2024-01-10T05:23:46;-5.70;99.90
20726;DHT22;10524;48.132;8.518;2024-01-10T05:26:11;-5.60;99.90
20726;DHT22;10524;48.132;8.518;2024-01-10T05:28:38;-5.60;99.90
20726;DHT22;10524;48.132;8.518;2024-01-10T05:31:04;-5.60;99.90
20726;DHT22;10524;48.132;8.518;2024-01-10T05:33:30;-5.60;99.90
20726;DHT22;10524;48.132;8.518;2024-01-10T05:35:56;-5.60;99.90
20726;DHT22;10524;48.132;8.518;2024-01-10T05:38:23;-5.60;99.90
20726;DHT22;10524;48.132;8.518;2024-01-10T05:40:49;-5.70;99.90
20726;DHT22;10524;48.132;8.518;2024-01-10T05:43:15;-5.60;99.90
20726;DHT22;10524;48.132;8.518;2024-01-10T05:45:41;-5.60;99.90
20726;DHT22;10524;48.132;8.518;2024-01-10T05:48:07;-5.70;99.90
20726;DHT22;10524;48.132;8.518;2024-01-10T05:50:32;-5.70;99.90
20726;DHT22;10524;48.132;8.518;2024-01-10T05:52:58;-5.70;99.90
20726;DHT22;10524;48.132;8.518;2024-01-10T05:55:24;-5.70;99.90
20726;DHT22;10524;48.132;8.518;2024-01-10T05:57:50;-5.70;99.90
20726;DHT22;10524;48.132;8.518;2024-01-10T06:00:16;-5.80;99.90
20726;DHT22;10524;48.132;8.518;2024-01-10T06:02:42;-5.80;99.90
20726;DHT22;10524;48.132;8.518;2024-01-10T06:05:11;-5.80;99.90
20726;DHT22;10524;48.132;8.518;2024-01-10T06:07:38;-5.80;99.90
20726;DHT22;10524;48.132;8.518;2024-01-10T06:10:04;-5.90;99.90
20726;DHT22;10524;48.132;8.518;2024-01-10T06:12:30;-5.90;99.90
20726;DHT22;10524;48.132;8.518;2024-01-10T06:14:56;-5.90;99.90
20726;DHT22;10524;48.132;8.518;2024-01-10T06:17:23;-5.90;99.90
20726;DHT22;10524;48.132;8.518;2024-01-10T06:19:49;-6.00;99.90
20726;DHT22;10524;48.132;8.518;2024-01-10T06:22:15;-6.00;99.90
20726;DHT22;10524;48.132;8.518;2024-01-10T06:24:42;-6.00;99.90
20726;DHT22;10524;48.132;8.518;2024-01-10T06:27:08;-6.00;99.90
20726;DHT22;10524;48.132;8.518;2024-01-10T06:29:35;-6.10;99.90
20726;DHT22;10524;48.132;8.518;2024-01-10T06:32:03;-6.20;99.90
20726;DHT22;10524;48.132;8.518;2024-01-10T06:34:29;-6.30;99.90
20726;DHT22;10524;48.132;8.518;2024-01-10T06:36:55;-6.40;99.90
20726;DHT22;10524;48.132;8.518;2024-01-10T06:39:20;-6.50;99.90
20726;DHT22;10524;48.132;8.518;2024-01-10T06:41:47;-6.60;99.90
20726;DHT22;10524;48.132;8.518;2024-01-10T06:44:13;-6.70;99.90
20726;DHT22;10524;48.132;8.518;2024-01-10T06:46:39;-6.70;99.90
20726;DHT22;10524;48.132;8.518;2024-01-10T06:49:05;-6.80;99.90
20726;DHT22;10524;48.132;8.518;2024-01-10T06:51:32;-7.00;99.90
20726;DHT22;10524;48.132;8.518;2024-01-10T06:53:58;-7.10;99.90
20726;DHT22;10524;48.132;8.518;2024-01-10T06:56:32;-7.30;99.90
20726;DHT22;10524;48.132;8.518;2024-01-10T06:58:59;-7.40;99.90
20726;DHT22;10524;48.132;8.518;2024-01-10T07:01:25;-7.50;99.90
20726;DHT22;10524;48.132;8.518;2024-01-10T07:03:52;-7.60;99.90
20726;DHT22;10524;48.132;8.518;2024-01-10T07:06:18;-7.60;99.90
20726;DHT22;10524;48.132;8.518;2024-01-10T07:08:44;-7.50;99.90
20726;DHT22;10524;48.132;8.518;2024-01-10T07:11:10;-7.40;99.90
20726;DHT22;10524;48.132;8.518;2024-01-10T07:13:40;-7.30;99.90
20726;DHT22;10524;48.132;8.518;2024-01-10T07:16:06;-7.10;99.90
20726;DHT22;10524;48.132;8.518;2024-01-10T07:18:32;-7.00;99.90
20726;DHT22;10524;48.132;8.518;2024-01-10T07:20:58;-6.90;99.90
20726;DHT22;10524;48.132;8.518;2024-01-10T07:23:23;-6.80;99.90
20726;DHT22;10524;48.132;8.518;2024-01-10T07:25:49;-6.80;99.90
20726;DHT22;10524;48.132;8.518;2024-01-10T07:28:16;-6.80;99.90
20726;DHT22;10524;48.132;8.518;2024-01-10T07:30:42;-6.80;99.90
20726;DHT22;10524;48.132;8.518;2024-01-10T07:33:09;-6.90;99.90
20726;DHT22;10524;48.132;8.518;2024-01-10T07:35:35;-6.90;99.90
20726;DHT22;10524;48.132;8.518;2024-01-10T07:38:00;-6.80;99.90
20726;DHT22;10524;48.132;8.518;2024-01-10T07:40:26;-6.70;99.90
20726;DHT22;10524;48.132;8.518;2024-01-10T07:42:52;-6.70;99.90
20726;DHT22;10524;48.132;8.518;2024-01-10T07:45:18;-6.50;99.90
20726;DHT22;10524;48.132;8.518;2024-01-10T07:47:43;-6.40;99.90
20726;DHT22;10524;48.132;8.518;2024-01-10T07:50:10;-6.40;99.90
20726;DHT22;10524;48.132;8.518;2024-01-10T07:52:40;-6.30;99.90
20726;DHT22;10524;48.132;8.518;2024-01-10T07:55:06;-6.30;99.90
20726;DHT22;10524;48.132;8.518;2024-01-10T07:57:35;-6.20;99.90
20726;DHT22;10524;48.132;8.518;2024-01-10T08:00:03;-6.30;99.90
20726;DHT22;10524;48.132;8.518;2024-01-10T08:02:34;-6.30;99.90
20726;DHT22;10524;48.132;8.518;2024-01-10T08:05:01;-6.30;99.90
20726;DHT22;10524;48.132;8.518;2024-01-10T08:07:30;-6.20;99.90
20726;DHT22;10524;48.132;8.518;2024-01-10T08:09:59;-6.10;99.90
20726;DHT22;10524;48.132;8.518;2024-01-10T08:12:25;-5.90;99.90
20726;DHT22;10524;48.132;8.518;2024-01-10T08:14:51;-5.80;99.90
20726;DHT22;10524;48.132;8.518;2024-01-10T08:17:16;-5.60;99.90
20726;DHT22;10524;48.132;8.518;2024-01-10T08:19:42;-5.50;99.90
20726;DHT22;10524;48.132;8.518;2024-01-10T08:22:08;-5.30;99.90
20726;DHT22;10524;48.132;8.518;2024-01-10T08:24:34;-5.20;99.90
20726;DHT22;10524;48.132;8.518;2024-01-10T08:26:59;-5.20;99.90
20726;DHT22;10524;48.132;8.518;2024-01-10T08:29:25;-5.10;99.90
20726;DHT22;10524;48.132;8.518;2024-01-10T08:31:57;-4.90;99.90
20726;DHT22;10524;48.132;8.518;2024-01-10T08:34:23;-4.70;99.90
20726;DHT22;10524;48.132;8.518;2024-01-10T08:36:49;-4.40;99.90
20726;DHT22;10524;48.132;8.518;2024-01-10T08:39:18;-4.30;99.90
20726;DHT22;10524;48.132;8.518;2024-01-10T08:41:44;-4.10;99.90
20726;DHT22;10524;48.132;8.518;2024-01-10T08:44:11;-3.90;99.90
20726;DHT22;10524;48.132;8.518;2024-01-10T08:46:37;-3.80;99.90
20726;DHT22;10524;48.132;8.518;2024-01-10T08:49:03;-3.90;99.90
20726;DHT22;10524;48.132;8.518;2024-01-10T08:51:29;-3.70;99.90
20726;DHT22;10524;48.132;8.518;2024-01-10T08:53:54;-3.50;99.90
20726;DHT22;10524;48.132;8.518;2024-01-10T08:56:22;-3.30;99.90
20726;DHT22;10524;48.132;8.518;2024-01-10T08:58:48;-3.30;99.90
20726;DHT22;10524;48.132;8.518;2024-01-10T09:01:14;-3.30;99.90
20726;DHT22;10524;48.132;8.518;2024-01-10T09:03:39;-3.40;99.90
20726;DHT22;10524;48.132;8.518;2024-01-10T09:06:05;-3.40;99.90
20726;DHT22;10524;48.132;8.518;2024-01-10T09:08:34;-3.50;99.90
20726;DHT22;10524;48.132;8.518;2024-01-10T09:11:00;-3.20;99.90
20726;DHT22;10524;48.132;8.518;2024-01-10T09:13:25;-2.90;99.90
20726;DHT22;10524;48.132;8.518;2024-01-10T09:15:51;-2.80;99.90
20726;DHT22;10524;48.132;8.518;2024-01-10T09:18:17;-2.80;99.90
20726;DHT22;10524;48.132;8.518;2024-01-10T09:20:43;-3.00;99.90
20726;DHT22;10524;48.132;8.518;2024-01-10T09:23:08;-3.00;99.90
20726;DHT22;10524;48.132;8.518;2024-01-10T09:25:36;-2.90;99.90
20726;DHT22;10524;48.132;8.518;2024-01-10T09:28:01;-2.90;99.90
20726;DHT22;10524;48.132;8.518;2024-01-10T09:30:27;-2.90;99.90
20726;DHT22;10524;48.132;8.518;2024-01-10T09:32:53;-2.70;99.90
20726;DHT22;10524;48.132;8.518;2024-01-10T09:35:19;-2.50;99.90
20726;DHT22;10524;48.132;8.518;2024-01-10T09:37:44;-2.40;99.90
20726;DHT22;10524;48.132;8.518;2024-01-10T09:40:14;-1.70;99.90
20726;DHT22;10524;48.132;8.518;2024-01-10T09:42:41;-1.20;99.90
20726;DHT22;10524;48.132;8.518;2024-01-10T09:45:09;-0.60;99.90
20726;DHT22;10524;48.132;8.518;2024-01-10T09:47:36;0.80;99.90
20726;DHT22;10524;48.132;8.518;2024-01-10T09:50:03;2.50;99.90
20726;DHT22;10524;48.132;8.518;2024-01-10T09:52:34;4.20;99.90
20726;DHT22;10524;48.132;8.518;2024-01-10T09:55:01;5.00;99.90
20726;DHT22;10524;48.132;8.518;2024-01-10T09:57:27;5.20;99.90
20726;DHT22;10524;48.132;8.518;2024-01-10T09:59:53;4.20;99.90
20726;DHT22;10524;48.132;8.518;2024-01-10T10:02:23;3.30;99.90
20726;DHT22;10524;48.132;8.518;2024-01-10T10:05:02;2.40;99.90
20726;DHT22;10524;48.132;8.518;2024-01-10T10:07:29;1.80;99.90
20726;DHT22;10524;48.132;8.518;2024-01-10T10:09:55;1.80;99.90
20726;DHT22;10524;48.132;8.518;2024-01-10T10:12:42;2.00;99.90
20726;DHT22;10524;48.132;8.518;2024-01-10T10:15:15;2.10;99.90
20726;DHT22;10524;48.132;8.518;2024-01-10T10:17:43;1.80;99.90
20726;DHT22;10524;48.132;8.518;2024-01-10T10:20:23;1.90;99.90
20726;DHT22;10524;48.132;8.518;2024-01-10T10:23:03;1.70;99.90
20726;DHT22;10524;48.132;8.518;2024-01-10T10:25:34;1.20;99.90
20726;DHT22;10524;48.132;8.518;2024-01-10T10:28:02;1.20;99.90
20726;DHT22;10524;48.132;8.518;2024-01-10T10:30:28;1.30;99.90
20726;DHT22;10524;48.132;8.518;2024-01-10T10:32:55;1.30;99.90
20726;DHT22;10524;48.132;8.518;2024-01-10T10:35:21;1.20;99.90
20726;DHT22;10524;48.132;8.518;2024-01-10T10:37:51;1.10;99.90
20726;DHT22;10524;48.132;8.518;2024-01-10T10:40:18;0.80;99.90
20726;DHT22;10524;48.132;8.518;2024-01-10T10:42:46;0.70;99.90
20726;DHT22;10524;48.132;8.518;2024-01-10T10:45:15;0.70;99.90
20726;DHT22;10524;48.132;8.518;2024-01-10T10:47:46;0.30;99.90
20726;DHT22;10524;48.132;8.518;2024-01-10T10:50:22;0.10;99.90
20726;DHT22;10524;48.132;8.518;2024-01-10T10:52:49;0.10;99.90
20726;DHT22;10524;48.132;8.518;2024-01-10T10:55:16;-0.20;99.90
20726;DHT22;10524;48.132;8.518;2024-01-10T10:57:46;0.10;99.90
20726;DHT22;10524;48.132;8.518;2024-01-10T11:00:13;0.30;99.90
20726;DHT22;10524;48.132;8.518;2024-01-10T11:02:41;0.30;99.90
20726;DHT22;10524;48.132;8.518;2024-01-10T11:05:08;0.50;99.90
20726;DHT22;10524;48.132;8.518;2024-01-10T11:07:42;0.60;99.90
20726;DHT22;10524;48.132;8.518;2024-01-10T11:10:37;0.70;99.90
20726;DHT22;10524;48.132;8.518;2024-01-10T11:13:13;1.80;99.90
20726;DHT22;10524;48.132;8.518;2024-01-10T11:21:39;5.50;99.90
20726;DHT22;10524;48.132;8.518;2024-01-10T11:24:09;6.90;99.90
20726;DHT22;10524;48.132;8.518;2024-01-10T11:26:37;8.00;99.90
20726;DHT22;10524;48.132;8.518;2024-01-10T11:29:04;8.40;99.90
20726;DHT22;10524;48.132;8.518;2024-01-10T11:31:31;8.80;99.90
20726;DHT22;10524;48.132;8.518;2024-01-10T11:33:58;8.00;99.90
20726;DHT22;10524;48.132;8.518;2024-01-10T11:36:24;8.20;99.90
20726;DHT22;10524;48.132;8.518;2024-01-10T11:38:57;8.60;99.90
20726;DHT22;10524;48.132;8.518;2024-01-10T11:46:52;11.10;99.90
20726;DHT22;10524;48.132;8.518;2024-01-10T11:49:19;11.50;99.90
20726;DHT22;10524;48.132;8.518;2024-01-10T11:51:54;11.90;99.90
20726;DHT22;10524;48.132;8.518;2024-01-10T11:54:43;12.00;99.90
20726;DHT22;10524;48.132;8.518;2024-01-10T11:57:27;11.20;99.90
20726;DHT22;10524;48.132;8.518;2024-01-10T11:59:55;10.50;99.90
20726;DHT22;10524;48.132;8.518;2024-01-10T12:02:22;11.00;99.90
20726;DHT22;10524;48.132;8.518;2024-01-10T12:04:50;11.10;99.90
20726;DHT22;10524;48.132;8.518;2024-01-10T12:07:17;11.50;99.90
20726;DHT22;10524;48.132;8.518;2024-01-10T12:09:43;11.70;99.90
20726;DHT22;10524;48.132;8.518;2024-01-10T12:12:09;11.90;99.90
20726;DHT22;10524;48.132;8.518;2024-01-10T12:14:39;12.50;99.90
20726;DHT22;10524;48.132;8.518;2024-01-10T12:17:05;13.00;99.90
20726;DHT22;10524;48.132;8.518;2024-01-10T12:19:34;12.40;99.90
20726;DHT22;10524;48.132;8.518;2024-01-10T12:22:00;11.00;99.90
20726;DHT22;10524;48.132;8.518;2024-01-10T12:24:28;9.90;99.90
20726;DHT22;10524;48.132;8.518;2024-01-10T12:26:55;9.40;99.90
20726;DHT22;10524;48.132;8.518;2024-01-10T12:29:21;10.10;99.90
20726;DHT22;10524;48.132;8.518;2024-01-10T12:31:47;10.80;99.90
20726;DHT22;10524;48.132;8.518;2024-01-10T12:34:14;11.30;99.90
20726;DHT22;10524;48.132;8.518;2024-01-10T12:36:41;12.20;99.90
20726;DHT22;10524;48.132;8.518;2024-01-10T12:39:08;12.60;99.90
20726;DHT22;10524;48.132;8.518;2024-01-10T12:41:34;12.70;99.90
20726;DHT22;10524;48.132;8.518;2024-01-10T12:44:01;13.20;99.90
20726;DHT22;10524;48.132;8.518;2024-01-10T12:46:30;12.80;99.90
20726;DHT22;10524;48.132;8.518;2024-01-10T12:49:09;12.80;99.90
20726;DHT22;10524;48.132;8.518;2024-01-10T12:51:35;12.80;99.90
20726;DHT22;10524;48.132;8.518;2024-01-10T12:54:04;13.20;99.90
20726;DHT22;10524;48.132;8.518;2024-01-10T12:56:30;12.50;99.90
20726;DHT22;10524;48.132;8.518;2024-01-10T12:58:56;9.90;99.90
20726;DHT22;10524;48.132;8.518;2024-01-10T13:01:23;7.10;99.90
20726;DHT22;10524;48.132;8.518;2024-01-10T13:03:49;5.10;99.90
20726;DHT22;10524;48.132;8.518;2024-01-10T13:06:17;3.80;99.90
20726;DHT22;10524;48.132;8.518;2024-01-10T13:08:45;3.10;99.90
20726;DHT22;10524;48.132;8.518;2024-01-10T13:11:11;2.40;99.90
20726;DHT22;10524;48.132;8.518;2024-01-10T13:13:37;2.00;99.90
20726;DHT22;10524;48.132;8.518;2024-01-10T13:16:03;1.80;99.90
20726;DHT22;10524;48.132;8.518;2024-01-10T13:18:29;1.60;99.90
20726;DHT22;10524;48.132;8.518;2024-01-10T13:20:55;1.50;99.90
20726;DHT22;10524;48.132;8.518;2024-01-10T13:23:21;1.30;99.90
20726;DHT22;10524;48.132;8.518;2024-01-10T13:25:51;1.20;99.90
20726;DHT22;10524;48.132;8.518;2024-01-10T13:28:18;1.20;99.90
20726;DHT22;10524;48.132;8.518;2024-01-10T13:30:44;1.10;99.90
20726;DHT22;10524;48.132;8.518;2024-01-10T13:33:10;1.10;99.90
20726;DHT22;10524;48.132;8.518;2024-01-10T13:35:36;1.00;99.90
20726;DHT22;10524;48.132;8.518;2024-01-10T13:38:02;1.00;99.90
20726;DHT22;10524;48.132;8.518;2024-01-10T13:40:28;1.00;99.90
20726;DHT22;10524;48.132;8.518;2024-01-10T13:42:54;1.10;99.90
20726;DHT22;10524;48.132;8.518;2024-01-10T13:45:20;1.10;99.90
20726;DHT22;10524;48.132;8.518;2024-01-10T13:47:47;1.10;99.90
20726;DHT22;10524;48.132;8.518;2024-01-10T13:50:15;1.10;99.90
20726;DHT22;10524;48.132;8.518;2024-01-10T13:52:41;1.10;99.90
20726;DHT22;10524;48.132;8.518;2024-01-10T13:55:07;1.10;99.90
20726;DHT22;10524;48.132;8.518;2024-01-10T13:57:33;1.10;99.90
20726;DHT22;10524;48.132;8.518;2024-01-10T14:00:00;1.10;99.90
20726;DHT22;10524;48.132;8.518;2024-01-10T14:02:26;1.00;99.90
20726;DHT22;10524;48.132;8.518;2024-01-10T14:04:52;1.00;99.90
20726;DHT22;10524;48.132;8.518;2024-01-10T14:07:23;0.90;99.90
20726;DHT22;10524;48.132;8.518;2024-01-10T14:09:52;0.90;99.90
20726;DHT22;10524;48.132;8.518;2024-01-10T14:12:21;0.90;99.90
20726;DHT22;10524;48.132;8.518;2024-01-10T14:14:48;0.90;99.90
20726;DHT22;10524;48.132;8.518;2024-01-10T14:17:13;0.80;99.90
20726;DHT22;10524;48.132;8.518;2024-01-10T14:19:39;0.80;99.90
20726;DHT22;10524;48.132;8.518;2024-01-10T14:22:05;0.70;99.90
20726;DHT22;10524;48.132;8.518;2024-01-10T14:24:32;0.70;99.90
20726;DHT22;10524;48.132;8.518;2024-01-10T14:26:58;0.70;99.90
20726;DHT22;10524;48.132;8.518;2024-01-10T14:29:24;0.70;99.90
20726;DHT22;10524;48.132;8.518;2024-01-10T14:31:49;0.70;99.90
20726;DHT22;10524;48.132;8.518;2024-01-10T14:34:16;0.70;99.90
20726;DHT22;10524;48.132;8.518;2024-01-10T14:36:41;0.70;99.90
20726;DHT22;10524;48.132;8.518;2024-01-10T14:39:07;0.70;99.90
20726;DHT22;10524;48.132;8.518;2024-01-10T14:41:33;0.70;99.90
20726;DHT22;10524;48.132;8.518;2024-01-10T14:44:02;0.60;99.90
20726;DHT22;10524;48.132;8.518;2024-01-10T14:46:29;0.50;99.90
20726;DHT22;10524;48.132;8.518;2024-01-10T14:48:55;0.50;99.90
20726;DHT22;10524;48.132;8.518;2024-01-10T14:51:21;0.30;99.90
20726;DHT22;10524;48.132;8.518;2024-01-10T14:53:47;0.20;99.90
20726;DHT22;10524;48.132;8.518;2024-01-10T14:56:13;0.10;99.90
20726;DHT22;10524;48.132;8.518;2024-01-10T14:58:41;-0.10;99.90
20726;DHT22;10524;48.132;8.518;2024-01-10T15:01:10;-0.10;99.90
20726;DHT22;10524;48.132;8.518;2024-01-10T15:03:36;-0.20;99.90
20726;DHT22;10524;48.132;8.518;2024-01-10T15:06:04;-0.30;99.90
20726;DHT22;10524;48.132;8.518;2024-01-10T15:08:31;-0.40;99.90
20726;DHT22;10524;48.132;8.518;2024-01-10T15:10:56;-0.40;99.90
20726;DHT22;10524;48.132;8.518;2024-01-10T15:13:22;-0.40;99.90
20726;DHT22;10524;48.132;8.518;2024-01-10T15:15:48;-0.40;99.90
20726;DHT22;10524;48.132;8.518;2024-01-10T15:18:14;-0.50;99.90
20726;DHT22;10524;48.132;8.518;2024-01-10T15:20:40;-0.60;99.90
20726;DHT22;10524;48.132;8.518;2024-01-10T15:23:06;-0.60;99.90
20726;DHT22;10524;48.132;8.518;2024-01-10T15:25:32;-0.70;99.90
20726;DHT22;10524;48.132;8.518;2024-01-10T15:27:57;-0.90;99.90
20726;DHT22;10524;48.132;8.518;2024-01-10T15:30:25;-1.00;99.90
20726;DHT22;10524;48.132;8.518;2024-01-10T15:32:52;-1.00;99.90
20726;DHT22;10524;48.132;8.518;2024-01-10T15:35:17;-1.00;99.90
20726;DHT22;10524;48.132;8.518;2024-01-10T15:37:44;-1.00;99.90
20726;DHT22;10524;48.132;8.518;2024-01-10T15:40:10;-1.20;99.90
20726;DHT22;10524;48.132;8.518;2024-01-10T15:42:37;-1.30;99.90
20726;DHT22;10524;48.132;8.518;2024-01-10T15:45:03;-1.40;99.90